sensor_id;sensor_type;location;lat;lon;timestamp;pressure;altitude;pressure_sealevel;temperature;humidity
49943;BME280;36011;53.362;58.948;2023-01-30T00:00:06;97044.72;;;-9.78;59.48
49943;BME280;36011;53.362;58.948;2023-01-30T00:03:10;97036.25;;;-9.77;59.36
49943;BME280;36011;53.362;58.948;2023-01-30T00:06:11;97047.88;;;-9.91;59.40
49943;BME280;36011;53.362;58.948;2023-01-30T00:09:15;97047.94;;;-9.88;59.58
49943;BME280;36011;53.362;58.948;2023-01-30T00:12:19;97047.94;;;-9.88;59.22
49943;BME280;36011;53.362;58.948;2023-01-30T00:15:20;97052.09;;;-9.94;59.78
49943;BME280;36011;53.362;58.948;2023-01-30T00:18:23;97046.22;;;-9.89;59.32
49943;BME280;36011;53.362;58.948;2023-01-30T00:21:26;97048.31;;;-10.14;59.61
49943;BME280;36011;53.362;58.948;2023-01-30T00:24:32;97057.69;;;-10.13;60.00
49943;BME280;36011;53.362;58.948;2023-01-30T00:27:38;97061.78;;;-10.20;59.88
49943;BME280;36011;53.362;58.948;2023-01-30T00:30:46;97062.03;;;-10.07;60.02
49943;BME280;36011;53.362;58.948;2023-01-30T00:33:50;97051.03;;;-10.05;59.69
49943;BME280;36011;53.362;58.948;2023-01-30T00:36:51;97052.56;;;-10.16;59.90
49943;BME280;36011;53.362;58.948;2023-01-30T00:39:54;97057.91;;;-10.01;60.31
49943;BME280;36011;53.362;58.948;2023-01-30T00:42:55;97041.78;;;-10.01;60.07
49943;BME280;36011;53.362;58.948;2023-01-30T00:46:16;97046.84;;;-10.03;60.15
49943;BME280;36011;53.362;58.948;2023-01-30T00:49:37;97056.31;;;-9.96;60.07
49943;BME280;36011;53.362;58.948;2023-01-30T00:52:38;97037.84;;;-9.82;60.09
49943;BME280;36011;53.362;58.948;2023-01-30T00:55:42;97042.88;;;-9.87;59.74
49943;BME280;36011;53.362;58.948;2023-01-30T00:58:46;97038.94;;;-10.18;59.91
49943;BME280;36011;53.362;58.948;2023-01-30T01:01:50;97039.00;;;-10.15;60.56
49943;BME280;36011;53.362;58.948;2023-01-30T01:04:53;97041.69;;;-10.06;60.31
49943;BME280;36011;53.362;58.948;2023-01-30T01:07:57;97052.78;;;-10.04;60.27
49943;BME280;36011;53.362;58.948;2023-01-30T01:10:58;97052.56;;;-10.16;60.17
49943;BME280;36011;53.362;58.948;2023-01-30T01:13:59;97049.34;;;-10.06;60.53
49943;BME280;36011;53.362;58.948;2023-01-30T01:17:01;97052.94;;;-9.95;60.15
49943;BME280;36011;53.362;58.948;2023-01-30T01:20:02;97055.34;;;-9.52;59.40
49943;BME280;36011;53.362;58.948;2023-01-30T01:23:03;97049.63;;;-9.39;58.93
49943;BME280;36011;53.362;58.948;2023-01-30T01:26:09;97040.06;;;-9.54;59.57
49943;BME280;36011;53.362;58.948;2023-01-30T01:29:14;97055.47;;;-9.44;59.63
49943;BME280;36011;53.362;58.948;2023-01-30T01:32:15;97049.59;;;-9.40;59.03
49943;BME280;36011;53.362;58.948;2023-01-30T01:35:16;97056.09;;;-9.59;59.36
49943;BME280;36011;53.362;58.948;2023-01-30T01:38:21;97053.97;;;-9.33;58.97
49943;BME280;36011;53.362;58.948;2023-01-30T01:41:24;97047.81;;;-9.46;59.22
49943;BME280;36011;53.362;58.948;2023-01-30T01:44:29;97044.72;;;-9.78;59.94
49943;BME280;36011;53.362;58.948;2023-01-30T01:47:57;97050.06;;;-9.63;60.10
49943;BME280;36011;53.362;58.948;2023-01-30T01:51:07;97040.81;;;-9.58;60.02
49943;BME280;36011;53.362;58.948;2023-01-30T01:54:14;97047.63;;;-9.57;59.81
49943;BME280;36011;53.362;58.948;2023-01-30T01:57:19;97039.69;;;-9.75;59.76
49943;BME280;36011;53.362;58.948;2023-01-30T02:00:22;97043.91;;;-9.77;60.46
49943;BME280;36011;53.362;58.948;2023-01-30T02:03:27;97039.84;;;-9.66;60.24
49943;BME280;36011;53.362;58.948;2023-01-30T02:06:31;97040.06;;;-9.54;60.50
49943;BME280;36011;53.362;58.948;2023-01-30T02:09:32;97043.84;;;-9.80;60.54
49943;BME280;36011;53.362;58.948;2023-01-30T02:12:33;97048.78;;;-9.88;60.98
49943;BME280;36011;53.362;58.948;2023-01-30T02:15:36;97043.09;;;-9.76;61.14
49943;BME280;36011;53.362;58.948;2023-01-30T02:18:40;97043.69;;;-9.88;61.14
49943;BME280;36011;53.362;58.948;2023-01-30T02:44:33;97041.16;;;-9.89;60.90
49943;BME280;36011;53.362;58.948;2023-01-30T02:47:29;97046.03;;;-10.02;61.29
49943;BME280;36011;53.362;58.948;2023-01-30T02:50:34;97057.81;;;-10.07;61.38
49943;BME280;36011;53.362;58.948;2023-01-30T02:53:44;97057.13;;;-9.98;61.33
49943;BME280;36011;53.362;58.948;2023-01-30T02:56:47;97051.03;;;-10.05;61.26
49943;BME280;36011;53.362;58.948;2023-01-30T02:59:53;97065.28;;;-10.16;61.43
49943;BME280;36011;53.362;58.948;2023-01-30T03:06:21;97058.56;;;-10.12;61.33
49943;BME280;36011;53.362;58.948;2023-01-30T03:09:34;97068.75;;;-10.11;61.45
49943;BME280;36011;53.362;58.948;2023-01-30T03:12:42;97055.38;;;-10.01;61.19
49943;BME280;36011;53.362;58.948;2023-01-30T03:15:49;97070.38;;;-10.16;61.36
49943;BME280;36011;53.362;58.948;2023-01-30T03:18:54;97069.47;;;-10.18;61.53
49943;BME280;36011;53.362;58.948;2023-01-30T03:21:57;97070.72;;;-10.43;61.74
49943;BME280;36011;53.362;58.948;2023-01-30T03:24:58;97075.75;;;-10.45;62.22
49943;BME280;36011;53.362;58.948;2023-01-30T03:27:59;97082.38;;;-10.09;62.00
49943;BME280;36011;53.362;58.948;2023-01-30T03:31:04;97076.25;;;-10.17;61.90
49943;BME280;36011;53.362;58.948;2023-01-30T03:34:07;97084.75;;;-10.18;62.26
49943;BME280;36011;53.362;58.948;2023-01-30T03:37:08;97083.09;;;-10.16;62.14
49943;BME280;36011;53.362;58.948;2023-01-30T03:40:10;97081.41;;;-10.14;62.72
49943;BME280;36011;53.362;58.948;2023-01-30T03:43:13;97075.31;;;-10.24;62.89
49943;BME280;36011;53.362;58.948;2023-01-30T03:46:14;97084.09;;;-10.06;63.12
49943;BME280;36011;53.362;58.948;2023-01-30T03:49:15;97088.97;;;-10.19;62.96
49943;BME280;36011;53.362;58.948;2023-01-30T03:52:23;97086.94;;;-10.38;63.38
49943;BME280;36011;53.362;58.948;2023-01-30T03:55:27;97084.25;;;-10.44;63.37
49943;BME280;36011;53.362;58.948;2023-01-30T03:58:28;97087.59;;;-10.47;63.75
49943;BME280;36011;53.362;58.948;2023-01-30T04:01:29;97090.78;;;-10.11;62.99
49943;BME280;36011;53.362;58.948;2023-01-30T04:04:33;97077.72;;;-10.31;62.59
49943;BME280;36011;53.362;58.948;2023-01-30T04:07:39;97080.44;;;-10.21;62.37
49943;BME280;36011;53.362;58.948;2023-01-30T04:10:45;97076.22;;;-10.20;62.65
49943;BME280;36011;53.362;58.948;2023-01-30T04:13:49;97079.25;;;-10.40;62.87
49943;BME280;36011;53.362;58.948;2023-01-30T04:16:52;97090.44;;;-10.31;63.21
49943;BME280;36011;53.362;58.948;2023-01-30T04:19:55;97077.09;;;-10.18;62.81
49943;BME280;36011;53.362;58.948;2023-01-30T04:22:56;97094.84;;;-10.21;62.69
49943;BME280;36011;53.362;58.948;2023-01-30T04:25:58;97079.72;;;-10.15;62.57
49943;BME280;36011;53.362;58.948;2023-01-30T04:29:01;97089.28;;;-10.02;61.66
49943;BME280;36011;53.362;58.948;2023-01-30T04:32:07;97079.28;;;-9.92;60.77
49943;BME280;36011;53.362;58.948;2023-01-30T04:35:08;97075.25;;;-9.81;60.06
49943;BME280;36011;53.362;58.948;2023-01-30T04:38:11;97078.06;;;-10.13;60.53
49943;BME280;36011;53.362;58.948;2023-01-30T04:41:17;97075.09;;;-9.90;60.85
49943;BME280;36011;53.362;58.948;2023-01-30T04:44:20;97070.72;;;-9.47;59.90
49943;BME280;36011;53.362;58.948;2023-01-30T04:47:21;97078.03;;;-9.66;60.19
49943;BME280;36011;53.362;58.948;2023-01-30T04:50:22;97083.38;;;-9.54;59.18
49943;BME280;36011;53.362;58.948;2023-01-30T04:53:26;97077.13;;;-9.69;59.96
49943;BME280;36011;53.362;58.948;2023-01-30T04:56:31;97082.72;;;-9.90;59.99
49943;BME280;36011;53.362;58.948;2023-01-30T04:59:34;97093.72;;;-9.91;60.56
49943;BME280;36011;53.362;58.948;2023-01-30T05:02:35;97080.38;;;-9.78;60.04
49943;BME280;36011;53.362;58.948;2023-01-30T05:05:41;97081.97;;;-9.83;60.54
49943;BME280;36011;53.362;58.948;2023-01-30T05:08:47;97085.47;;;-9.78;60.66
49943;BME280;36011;53.362;58.948;2023-01-30T05:11:55;97083.22;;;-9.61;60.81
49943;BME280;36011;53.362;58.948;2023-01-30T05:15:00;97077.00;;;-9.26;60.75
49943;BME280;36011;53.362;58.948;2023-01-30T05:18:09;97064.88;;;-9.40;60.56
49943;BME280;36011;53.362;58.948;2023-01-30T05:21:21;97073.38;;;-9.41;60.74
49943;BME280;36011;53.362;58.948;2023-01-30T05:24:30;97077.66;;;-9.37;60.65
49943;BME280;36011;53.362;58.948;2023-01-30T05:27:34;97077.56;;;-9.43;60.37
49943;BME280;36011;53.362;58.948;2023-01-30T05:30:38;97081.91;;;-9.38;60.19
49943;BME280;36011;53.362;58.948;2023-01-30T05:33:41;97078.47;;;-9.40;60.19
49943;BME280;36011;53.362;58.948;2023-01-30T05:36:44;97077.94;;;-9.22;60.02
49943;BME280;36011;53.362;58.948;2023-01-30T05:39:48;97087.88;;;-8.81;58.86
49943;BME280;36011;53.362;58.948;2023-01-30T05:43:03;97091.31;;;-8.77;58.32
49943;BME280;36011;53.362;58.948;2023-01-30T05:46:14;97086.66;;;-8.44;57.89
49943;BME280;36011;53.362;58.948;2023-01-30T05:49:22;97077.38;;;-8.37;57.42
49943;BME280;36011;53.362;58.948;2023-01-30T05:52:28;97089.34;;;-8.30;57.28
49943;BME280;36011;53.362;58.948;2023-01-30T05:55:33;97077.50;;;-8.25;57.29
49943;BME280;36011;53.362;58.948;2023-01-30T05:58:36;97059.84;;;-8.09;56.37
49943;BME280;36011;53.362;58.948;2023-01-30T06:01:38;97063.66;;;-7.68;55.80
49943;BME280;36011;53.362;58.948;2023-01-30T06:04:39;97061.19;;;-7.58;55.37
49943;BME280;36011;53.362;58.948;2023-01-30T06:07:40;97067.38;;;-7.32;55.43
49943;BME280;36011;53.362;58.948;2023-01-30T06:10:41;97070.13;;;-7.07;54.39
49943;BME280;36011;53.362;58.948;2023-01-30T06:13:42;97077.84;;;-7.04;54.41
49943;BME280;36011;53.362;58.948;2023-01-30T06:16:43;97077.97;;;-6.81;54.24
49943;BME280;36011;53.362;58.948;2023-01-30T06:19:46;97071.66;;;-4.95;51.38
49943;BME280;36011;53.362;58.948;2023-01-30T06:22:49;97071.59;;;-4.63;48.84
49943;BME280;36011;53.362;58.948;2023-01-30T06:25:51;97082.75;;;-5.34;49.53
49943;BME280;36011;53.362;58.948;2023-01-30T06:28:52;97081.91;;;-5.23;50.08
49943;BME280;36011;53.362;58.948;2023-01-30T06:31:55;97070.41;;;-3.73;46.91
49943;BME280;36011;53.362;58.948;2023-01-30T06:34:57;97072.06;;;-2.53;43.79
49943;BME280;36011;53.362;58.948;2023-01-30T06:37:58;97080.63;;;-1.75;42.67
49943;BME280;36011;53.362;58.948;2023-01-30T06:41:02;97078.78;;;0.73;39.59
49943;BME280;36011;53.362;58.948;2023-01-30T06:44:05;97068.06;;;2.52;34.88
49943;BME280;36011;53.362;58.948;2023-01-30T06:47:06;97082.72;;;4.13;33.29
49943;BME280;36011;53.362;58.948;2023-01-30T06:50:08;97074.94;;;5.89;29.19
49943;BME280;36011;53.362;58.948;2023-01-30T06:53:11;97082.41;;;6.77;28.09
49943;BME280;36011;53.362;58.948;2023-01-30T06:56:14;97083.25;;;7.67;27.35
49943;BME280;36011;53.362;58.948;2023-01-30T06:59:18;97087.81;;;8.49;25.64
49943;BME280;36011;53.362;58.948;2023-01-30T07:02:23;97081.78;;;9.43;24.46
49943;BME280;36011;53.362;58.948;2023-01-30T07:05:27;97099.16;;;9.46;23.59
49943;BME280;36011;53.362;58.948;2023-01-30T07:08:33;97099.94;;;9.93;24.18
49943;BME280;36011;53.362;58.948;2023-01-30T07:11:39;97103.13;;;9.83;21.59
49943;BME280;36011;53.362;58.948;2023-01-30T07:14:42;97095.81;;;9.42;23.59
49943;BME280;36011;53.362;58.948;2023-01-30T07:17:43;97104.78;;;10.59;21.32
49943;BME280;36011;53.362;58.948;2023-01-30T07:20:47;97099.72;;;10.56;20.61
49943;BME280;36011;53.362;58.948;2023-01-30T07:23:49;97094.59;;;10.96;20.81
49943;BME280;36011;53.362;58.948;2023-01-30T07:26:52;97089.13;;;11.67;20.28
49943;BME280;36011;53.362;58.948;2023-01-30T07:29:56;97091.47;;;12.25;19.53
49943;BME280;36011;53.362;58.948;2023-01-30T07:32:59;97087.44;;;12.70;19.39
49943;BME280;36011;53.362;58.948;2023-01-30T07:36:02;97084.19;;;12.79;19.01
49943;BME280;36011;53.362;58.948;2023-01-30T07:39:06;97088.41;;;12.31;19.24
49943;BME280;36011;53.362;58.948;2023-01-30T07:42:08;97081.34;;;11.79;19.51
49943;BME280;36011;53.362;58.948;2023-01-30T07:45:12;97076.97;;;11.52;19.45
49943;BME280;36011;53.362;58.948;2023-01-30T07:48:14;97079.59;;;11.25;19.43
49943;BME280;36011;53.362;58.948;2023-01-30T07:51:20;97078.63;;;11.26;19.38
49943;BME280;36011;53.362;58.948;2023-01-30T07:54:21;97085.63;;;11.94;19.25
49943;BME280;36011;53.362;58.948;2023-01-30T07:57:25;97084.41;;;12.12;18.65
49943;BME280;36011;53.362;58.948;2023-01-30T08:00:28;97079.09;;;11.87;18.55
49943;BME280;36011;53.362;58.948;2023-01-30T08:03:35;97073.47;;;10.69;19.09
49943;BME280;36011;53.362;58.948;2023-01-30T08:06:38;97083.72;;;10.88;18.93
49943;BME280;36011;53.362;58.948;2023-01-30T08:09:41;97076.16;;;10.24;19.22
49943;BME280;36011;53.362;58.948;2023-01-30T08:12:45;97075.00;;;10.73;19.59
49943;BME280;36011;53.362;58.948;2023-01-30T08:15:46;97078.63;;;11.26;18.94
49943;BME280;36011;53.362;58.948;2023-01-30T08:18:47;97075.72;;;11.31;18.46
49943;BME280;36011;53.362;58.948;2023-01-30T08:21:50;97081.63;;;11.61;18.92
49943;BME280;36011;53.362;58.948;2023-01-30T08:24:54;97083.09;;;12.05;18.75
49943;BME280;36011;53.362;58.948;2023-01-30T08:27:58;97080.16;;;12.23;18.82
49943;BME280;36011;53.362;58.948;2023-01-30T08:31:02;97083.66;;;11.16;19.79
49943;BME280;36011;53.362;58.948;2023-01-30T08:34:13;97081.69;;;11.06;20.33
49943;BME280;36011;53.362;58.948;2023-01-30T08:37:14;97086.41;;;11.42;19.82
49943;BME280;36011;53.362;58.948;2023-01-30T08:40:19;97080.94;;;11.45;20.09
49943;BME280;36011;53.362;58.948;2023-01-30T08:43:20;97091.41;;;11.59;19.88
49943;BME280;36011;53.362;58.948;2023-01-30T08:46:21;97088.78;;;11.59;20.10
49943;BME280;36011;53.362;58.948;2023-01-30T08:49:26;97088.97;;;11.83;19.78
49943;BME280;36011;53.362;58.948;2023-01-30T08:52:31;97084.44;;;11.85;19.92
49943;BME280;36011;53.362;58.948;2023-01-30T08:55:34;97080.00;;;12.51;19.45
49943;BME280;36011;53.362;58.948;2023-01-30T08:58:35;97079.50;;;13.33;19.45
49943;BME280;36011;53.362;58.948;2023-01-30T09:01:36;97085.47;;;13.96;18.08
49943;BME280;36011;53.362;58.948;2023-01-30T09:04:42;97072.47;;;14.04;17.81
49943;BME280;36011;53.362;58.948;2023-01-30T09:07:46;97069.81;;;13.20;18.46
49943;BME280;36011;53.362;58.948;2023-01-30T09:10:49;97069.69;;;13.35;18.19
49943;BME280;36011;53.362;58.948;2023-01-30T09:13:52;97064.34;;;13.47;18.37
49943;BME280;36011;53.362;58.948;2023-01-30T09:16:55;97058.34;;;13.81;18.03
49943;BME280;36011;53.362;58.948;2023-01-30T09:19:59;97068.81;;;14.29;18.11
49943;BME280;36011;53.362;58.948;2023-01-30T09:23:03;97061.66;;;14.53;17.91
49943;BME280;36011;53.362;58.948;2023-01-30T09:26:04;97063.81;;;14.59;17.88
49943;BME280;36011;53.362;58.948;2023-01-30T09:29:07;97073.59;;;14.59;17.69
49943;BME280;36011;53.362;58.948;2023-01-30T09:32:11;97065.81;;;14.22;18.00
49943;BME280;36011;53.362;58.948;2023-01-30T09:35:12;97060.75;;;13.48;18.36
49943;BME280;36011;53.362;58.948;2023-01-30T09:38:18;97057.97;;;13.13;18.50
49943;BME280;36011;53.362;58.948;2023-01-30T09:41:29;97055.16;;;11.63;19.47
49943;BME280;36011;53.362;58.948;2023-01-30T09:47:47;97046.00;;;6.53;24.36
49943;BME280;36011;53.362;58.948;2023-01-30T09:51:37;97045.09;;;4.67;26.96
49943;BME280;36011;53.362;58.948;2023-01-30T09:57:22;97045.06;;;2.10;30.38
49943;BME280;36011;53.362;58.948;2023-01-30T10:00:29;97040.94;;;3.17;29.45
49943;BME280;36011;53.362;58.948;2023-01-30T10:03:38;97034.19;;;5.23;26.92
49943;BME280;36011;53.362;58.948;2023-01-30T10:06:58;97048.22;;;6.04;25.85
49943;BME280;36011;53.362;58.948;2023-01-30T10:10:11;97047.66;;;6.16;25.56
49943;BME280;36011;53.362;58.948;2023-01-30T10:13:58;97047.28;;;5.84;25.93
49943;BME280;36011;53.362;58.948;2023-01-30T10:26:12;97045.28;;;6.49;24.71
49943;BME280;36011;53.362;58.948;2023-01-30T10:29:20;97058.72;;;6.80;24.60
49943;BME280;36011;53.362;58.948;2023-01-30T10:35:33;97041.38;;;6.39;24.60
49943;BME280;36011;53.362;58.948;2023-01-30T10:38:40;97038.25;;;5.51;25.70
49943;BME280;36011;53.362;58.948;2023-01-30T10:41:47;97043.31;;;5.13;26.09
49943;BME280;36011;53.362;58.948;2023-01-30T10:44:56;97036.81;;;3.62;28.03
49943;BME280;36011;53.362;58.948;2023-01-30T10:51:33;97035.56;;;1.45;31.25
49943;BME280;36011;53.362;58.948;2023-01-30T10:54:52;97039.44;;;-0.70;34.41
49943;BME280;36011;53.362;58.948;2023-01-30T10:58:07;97041.84;;;-1.69;36.31
49943;BME280;36011;53.362;58.948;2023-01-30T11:01:19;97033.19;;;-2.32;37.59
49943;BME280;36011;53.362;58.948;2023-01-30T11:04:32;97045.38;;;-2.46;39.30
49943;BME280;36011;53.362;58.948;2023-01-30T11:07:41;97054.69;;;-3.31;40.42
49943;BME280;36011;53.362;58.948;2023-01-30T11:10:43;97057.69;;;-3.99;41.07
49943;BME280;36011;53.362;58.948;2023-01-30T11:13:47;97062.81;;;-3.96;42.12
49943;BME280;36011;53.362;58.948;2023-01-30T11:20:00;97060.53;;;-5.08;44.31
49943;BME280;36011;53.362;58.948;2023-01-30T11:23:06;97060.47;;;-5.69;44.81
49943;BME280;36011;53.362;58.948;2023-01-30T11:26:33;97068.19;;;-5.68;46.09
49943;BME280;36011;53.362;58.948;2023-01-30T11:29:32;97057.84;;;-5.92;46.13
49943;BME280;36011;53.362;58.948;2023-01-30T11:32:34;97047.59;;;-6.12;46.89
49943;BME280;36011;53.362;58.948;2023-01-30T11:35:41;97054.38;;;-6.25;47.25
49943;BME280;36011;53.362;58.948;2023-01-30T11:38:51;97063.72;;;-6.35;48.19
49943;BME280;36011;53.362;58.948;2023-01-30T11:42:00;97058.38;;;-6.81;48.64
49943;BME280;36011;53.362;58.948;2023-01-30T11:45:03;97060.78;;;-7.01;49.46
49943;BME280;36011;53.362;58.948;2023-01-30T11:48:11;97063.31;;;-7.02;49.50
49943;BME280;36011;53.362;58.948;2023-01-30T11:51:16;97064.56;;;-7.64;50.47
49943;BME280;36011;53.362;58.948;2023-01-30T11:57:52;97066.78;;;-7.95;51.03
49943;BME280;36011;53.362;58.948;2023-01-30T12:00:57;97060.75;;;-8.01;52.23
49943;BME280;36011;53.362;58.948;2023-01-30T12:04:00;97066.44;;;-8.25;52.00
49943;BME280;36011;53.362;58.948;2023-01-30T12:07:07;97068.34;;;-8.07;53.11
49943;BME280;36011;53.362;58.948;2023-01-30T12:10:24;97055.63;;;-8.01;53.14
49943;BME280;36011;53.362;58.948;2023-01-30T12:13:28;97054.75;;;-8.06;53.17
49943;BME280;36011;53.362;58.948;2023-01-30T12:19:44;97055.13;;;-8.50;53.54
49943;BME280;36011;53.362;58.948;2023-01-30T12:26:00;97055.56;;;-8.82;55.00
49943;BME280;36011;53.362;58.948;2023-01-30T12:29:19;97051.16;;;-8.92;55.13
49943;BME280;36011;53.362;58.948;2023-01-30T12:32:25;97053.72;;;-8.92;55.40
49943;BME280;36011;53.362;58.948;2023-01-30T12:35:30;97064.00;;;-8.86;55.53
49943;BME280;36011;53.362;58.948;2023-01-30T12:41:55;97068.13;;;-9.51;56.35
49943;BME280;36011;53.362;58.948;2023-01-30T12:57:46;97066.84;;;-9.74;56.87
49943;BME280;36011;53.362;58.948;2023-01-30T13:07:24;97082.81;;;-10.31;58.10
49943;BME280;36011;53.362;58.948;2023-01-30T13:10:39;97082.81;;;-10.31;58.59
49943;BME280;36011;53.362;58.948;2023-01-30T13:13:49;97079.72;;;-10.15;58.57
49943;BME280;36011;53.362;58.948;2023-01-30T13:17:04;97073.53;;;-10.28;59.05
49943;BME280;36011;53.362;58.948;2023-01-30T13:26:35;97089.41;;;-10.40;59.47
49943;BME280;36011;53.362;58.948;2023-01-30T13:29:39;97085.91;;;-10.46;59.91
49943;BME280;36011;53.362;58.948;2023-01-30T13:32:43;97087.97;;;-10.69;59.84
49943;BME280;36011;53.362;58.948;2023-01-30T13:36:09;97085.44;;;-10.69;59.89
49943;BME280;36011;53.362;58.948;2023-01-30T13:39:12;97082.72;;;-10.77;60.27
49943;BME280;36011;53.362;58.948;2023-01-30T13:45:21;97085.41;;;-10.30;60.44
49943;BME280;36011;53.362;58.948;2023-01-30T13:51:42;97092.25;;;-10.24;60.53
49943;BME280;36011;53.362;58.948;2023-01-30T13:57:55;97075.56;;;-10.08;60.72
49943;BME280;36011;53.362;58.948;2023-01-30T14:01:00;97084.09;;;-10.06;60.64
49943;BME280;36011;53.362;58.948;2023-01-30T14:04:25;97085.88;;;-10.48;60.81
49943;BME280;36011;53.362;58.948;2023-01-30T14:07:32;97090.28;;;-10.78;60.90
49943;BME280;36011;53.362;58.948;2023-01-30T14:10:42;97086.75;;;-10.87;61.48
49943;BME280;36011;53.362;58.948;2023-01-30T14:13:47;97087.66;;;-10.44;62.22
49943;BME280;36011;53.362;58.948;2023-01-30T14:16:54;97082.06;;;-10.27;61.48
49943;BME280;36011;53.362;58.948;2023-01-30T14:19:59;97098.41;;;-10.13;61.80
49943;BME280;36011;53.362;58.948;2023-01-30T14:23:23;97098.00;;;-9.90;61.41
49943;BME280;36011;53.362;58.948;2023-01-30T14:29:49;97076.69;;;-9.96;61.19
49943;BME280;36011;53.362;58.948;2023-01-30T14:32:52;97084.13;;;-10.05;61.14
49943;BME280;36011;53.362;58.948;2023-01-30T14:42:26;97093.94;;;-10.67;61.86
49943;BME280;36011;53.362;58.948;2023-01-30T14:49:03;97082.13;;;-10.65;62.58
49943;BME280;36011;53.362;58.948;2023-01-30T14:52:16;97076.97;;;-10.68;62.72
49943;BME280;36011;53.362;58.948;2023-01-30T14:55:23;97080.47;;;-10.63;62.60
49943;BME280;36011;53.362;58.948;2023-01-30T14:58:31;97083.50;;;-10.79;62.56
49943;BME280;36011;53.362;58.948;2023-01-30T15:08:08;97090.53;;;-10.25;62.80
49943;BME280;36011;53.362;58.948;2023-01-30T15:11:25;97084.34;;;-10.40;63.18
49943;BME280;36011;53.362;58.948;2023-01-30T15:14:34;97093.19;;;-10.62;62.80
49943;BME280;36011;53.362;58.948;2023-01-30T15:27:30;97090.00;;;-10.09;62.40
49943;BME280;36011;53.362;58.948;2023-01-30T15:30:53;97092.22;;;-10.26;61.98
49943;BME280;36011;53.362;58.948;2023-01-30T15:34:14;97088.69;;;-10.35;62.03
49943;BME280;36011;53.362;58.948;2023-01-30T15:40:32;97095.09;;;-10.53;62.13
49943;BME280;36011;53.362;58.948;2023-01-30T15:49:58;97098.44;;;-10.95;62.49
49943;BME280;36011;53.362;58.948;2023-01-30T15:53:00;97096.97;;;-11.21;62.56
49943;BME280;36011;53.362;58.948;2023-01-30T15:56:02;97102.53;;;-11.38;62.72
49943;BME280;36011;53.362;58.948;2023-01-30T15:59:06;97093.53;;;-11.58;62.98
49943;BME280;36011;53.362;58.948;2023-01-30T16:02:24;97092.38;;;-11.38;63.43
49943;BME280;36011;53.362;58.948;2023-01-30T16:05:30;97089.28;;;-11.59;62.81
49943;BME280;36011;53.362;58.948;2023-01-30T16:08:36;97089.25;;;-11.61;62.64
49943;BME280;36011;53.362;58.948;2023-01-30T16:11:47;97090.03;;;-11.63;62.15
49943;BME280;36011;53.362;58.948;2023-01-30T16:14:52;97092.00;;;-11.88;62.57
49943;BME280;36011;53.362;58.948;2023-01-30T16:18:02;97085.34;;;-12.14;62.66
49943;BME280;36011;53.362;58.948;2023-01-30T16:21:06;97089.72;;;-12.10;63.14
49943;BME280;36011;53.362;58.948;2023-01-30T16:24:17;97090.44;;;-12.14;62.62
49943;BME280;36011;53.362;58.948;2023-01-30T16:27:41;97084.50;;;-12.15;62.80
49943;BME280;36011;53.362;58.948;2023-01-30T16:30:48;97088.97;;;-12.06;62.79
49943;BME280;36011;53.362;58.948;2023-01-30T16:33:56;97100.09;;;-12.01;62.99
49943;BME280;36011;53.362;58.948;2023-01-30T16:37:02;97097.63;;;-11.98;63.12
49943;BME280;36011;53.362;58.948;2023-01-30T16:43:21;97096.28;;;-11.84;63.09
49943;BME280;36011;53.362;58.948;2023-01-30T16:49:45;97086.38;;;-11.74;62.69
49943;BME280;36011;53.362;58.948;2023-01-30T16:52:56;97081.38;;;-11.71;63.10
49943;BME280;36011;53.362;58.948;2023-01-30T16:56:04;97083.25;;;-11.64;62.47
49943;BME280;36011;53.362;58.948;2023-01-30T16:59:11;97084.91;;;-11.65;62.68
49943;BME280;36011;53.362;58.948;2023-01-30T17:03:04;97087.28;;;-11.38;63.10
49943;BME280;36011;53.362;58.948;2023-01-30T17:06:54;97080.53;;;-11.36;62.73
49943;BME280;36011;53.362;58.948;2023-01-30T17:12:33;97083.69;;;-11.10;63.41
49943;BME280;36011;53.362;58.948;2023-01-30T17:15:36;97094.28;;;-10.91;63.06
49943;BME280;36011;53.362;58.948;2023-01-30T17:18:49;97093.06;;;-11.07;63.04
49943;BME280;36011;53.362;58.948;2023-01-30T17:21:51;97092.78;;;-11.19;63.08
49943;BME280;36011;53.362;58.948;2023-01-30T17:24:58;97091.88;;;-11.23;63.34
49943;BME280;36011;53.362;58.948;2023-01-30T17:28:06;97095.06;;;-11.30;63.33
49943;BME280;36011;53.362;58.948;2023-01-30T17:31:10;97092.38;;;-11.38;63.39
49943;BME280;36011;53.362;58.948;2023-01-30T17:34:11;97095.50;;;-11.48;63.76
49943;BME280;36011;53.362;58.948;2023-01-30T17:37:13;97102.28;;;-11.47;63.82
49943;BME280;36011;53.362;58.948;2023-01-30T17:40:16;97104.53;;;-11.58;63.45
49943;BME280;36011;53.362;58.948;2023-01-30T17:43:22;97100.03;;;-11.69;63.32
49943;BME280;36011;53.362;58.948;2023-01-30T17:46:34;97106.56;;;-11.79;63.27
49943;BME280;36011;53.362;58.948;2023-01-30T17:49:38;97096.09;;;-11.93;62.95
49943;BME280;36011;53.362;58.948;2023-01-30T17:52:42;97102.41;;;-12.09;63.31
49943;BME280;36011;53.362;58.948;2023-01-30T17:55:43;97101.16;;;-11.93;63.18
49943;BME280;36011;53.362;58.948;2023-01-30T17:58:46;97113.19;;;-11.86;61.52
49943;BME280;36011;53.362;58.948;2023-01-30T18:01:49;97106.47;;;-12.15;61.02
49943;BME280;36011;53.362;58.948;2023-01-30T18:04:53;97103.84;;;-12.49;61.01
49943;BME280;36011;53.362;58.948;2023-01-30T18:07:57;97099.88;;;-12.40;61.95
49943;BME280;36011;53.362;58.948;2023-01-30T18:10:58;97103.09;;;-12.46;62.05
49943;BME280;36011;53.362;58.948;2023-01-30T18:13:59;97110.63;;;-12.78;62.75
49943;BME280;36011;53.362;58.948;2023-01-30T18:17:00;97115.06;;;-12.42;63.22
49943;BME280;36011;53.362;58.948;2023-01-30T18:20:01;97106.63;;;-12.41;63.68
49943;BME280;36011;53.362;58.948;2023-01-30T18:23:04;97114.97;;;-12.45;63.84
49943;BME280;36011;53.362;58.948;2023-01-30T18:26:11;97120.13;;;-12.42;64.00
49943;BME280;36011;53.362;58.948;2023-01-30T18:29:14;97116.34;;;-12.56;64.32
49943;BME280;36011;53.362;58.948;2023-01-30T18:32:16;97105.63;;;-12.46;64.44
49943;BME280;36011;53.362;58.948;2023-01-30T18:35:17;97111.78;;;-12.38;64.89